Time;durP1;ratioP1;P1;durP2;ratioP2;P2;SDS_P1;SDS_P2;PMS_P1;PMS_P2;Temp;Humidity;BMP_temperature;BMP_pressure;BME280_temperature;BME280_humidity;BME280_pressure;Samples;Min_cycle;Max_cycle;Signal;HPM_P1;HPM_P2
2022/05/10 00:01:30;;;;;;;0.30;0.30;;;;;;;;;;4177952;28;20056;-32
2022/05/10 00:03:33;;;;;;;0.70;0.20;;;;;;;;;;4179914;28;20056;-33
2022/05/10 00:05:37;;;;;;;0.20;0.20;;;;;;;;;;4179907;28;20051;-33
2022/05/10 00:07:38;;;;;;;1.00;0.32;;;;;;;;;;4179902;28;20094;-33
2022/05/10 00:09:39;;;;;;;0.25;0.20;;;;;;;;;;4179882;28;20378;-33
2022/05/10 00:11:40;;;;;;;0.30;0.20;;;;;;;;;;4178459;28;20095;-33
2022/05/10 00:13:41;;;;;;;0.77;0.22;;;;;;;;;;4194624;28;20380;-33
2022/05/10 00:15:43;;;;;;;0.47;0.28;;;;;;;;;;4179873;28;20041;-32
2022/05/10 00:17:44;;;;;;;0.50;0.20;;;;;;;;;;4179941;28;20041;-33
2022/05/10 00:19:44;;;;;;;0.43;0.20;;;;;;;;;;4178293;28;20425;-33
2022/05/10 00:21:47;;;;;;;0.40;0.30;;;;;;;;;;4180144;28;20057;-38
2022/05/10 00:23:48;;;;;;;0.20;0.10;;;;;;;;;;4179455;28;20437;-33
2022/05/10 00:25:49;;;;;;;0.20;0.20;;;;;;;;;;4179802;28;20480;-33
2022/05/10 00:27:50;;;;;;;0.55;0.30;;;;;;;;;;4179535;28;20091;-33
2022/05/10 00:29:51;;;;;;;0.32;0.25;;;;;;;;;;4194527;28;20087;-33
2022/05/10 00:31:52;;;;;;;0.35;0.30;;;;;;;;;;4179525;28;20040;-33
2022/05/10 00:33:53;;;;;;;0.50;0.40;;;;;;;;;;4179482;28;20049;-33
2022/05/10 00:35:55;;;;;;;0.30;0.22;;;;;;;;;;4179576;28;20040;-33
2022/05/10 00:37:57;;;;;;;0.30;0.20;;;;;;;;;;4179582;28;20397;-33
2022/05/10 00:39:58;;;;;;;0.65;0.32;;;;;;;;;;4179397;28;20049;-33
2022/05/10 00:42:05;;;;;;;0.10;0.10;;;;;;;;;;4179605;28;20579;-33
2022/05/10 00:44:06;;;;;;;0.20;0.20;;;;;;;;;;4179063;28;20052;-32
2022/05/10 00:46:16;;;;;;;0.30;0.20;;;;;;;;;;4179405;28;20056;-33
2022/05/10 00:48:17;;;;;;;0.73;0.32;;;;;;;;;;4179709;28;20106;-32
2022/05/10 00:50:29;;;;;;;0.20;0.17;;;;;;;;;;4179638;28;20084;-33
2022/05/10 00:52:33;;;;;;;0.50;0.20;;;;;;;;;;4179297;28;20045;-33
2022/05/10 00:54:40;;;;;;;0.28;0.20;;;;;;;;;;4179461;28;20049;-33
2022/05/10 00:56:50;;;;;;;0.30;0.25;;;;;;;;;;4179458;28;20057;-32
2022/05/10 00:59:06;;;;;;;0.10;0.10;;;;;;;;;;4177704;28;20071;-33
2022/05/10 01:01:09;;;;;;;0.65;0.30;;;;;;;;;;4179065;28;20496;-33
2022/05/10 01:03:17;;;;;;;0.10;0.10;;;;;;;;;;4179850;28;20056;-33
2022/05/10 01:05:30;;;;;;;0.52;0.28;;;;;;;;;;4179189;28;20053;-33
2022/05/10 01:07:34;;;;;;;0.30;0.30;;;;;;;;;;4179630;28;20075;-33
2022/05/10 01:09:42;;;;;;;0.28;0.20;;;;;;;;;;4179604;28;20087;-32
2022/05/10 01:11:51;;;;;;;0.60;0.22;;;;;;;;;;4179092;28;20091;-33
2022/05/10 01:13:55;;;;;;;0.63;0.20;;;;;;;;;;4180949;28;20053;-33
2022/05/10 01:15:59;;;;;;;0.50;0.20;;;;;;;;;;4181711;28;20079;-32
2022/05/10 01:18:02;;;;;;;0.20;0.20;;;;;;;;;;4182572;28;20114;-33
2022/05/10 01:20:04;;;;;;;0.73;0.30;;;;;;;;;;4182438;28;20091;-33
2022/05/10 01:22:26;;;;;;;0.30;0.10;;;;;;;;;;4182546;28;20057;-33
2022/05/10 01:24:27;;;;;;;0.75;0.28;;;;;;;;;;4182305;28;20056;-33
2022/05/10 01:26:34;;;;;;;0.20;0.20;;;;;;;;;;4182522;28;20053;-32
2022/05/10 01:28:41;;;;;;;0.22;0.13;;;;;;;;;;4181823;28;20119;-33
2022/05/10 01:30:42;;;;;;;0.73;0.28;;;;;;;;;;4182351;28;20095;-32
2022/05/10 01:35:11;;;;;;;0.17;0.15;;;;;;;;;;4182552;28;20253;-32
2022/05/10 01:37:16;;;;;;;0.68;0.22;;;;;;;;;;4182475;28;20049;-33
2022/05/10 01:39:21;;;;;;;0.38;0.20;;;;;;;;;;4181025;28;20214;-32
2022/05/10 01:41:28;;;;;;;0.35;0.30;;;;;;;;;;4182228;28;20056;-32
2022/05/10 01:43:34;;;;;;;0.10;0.10;;;;;;;;;;4182231;28;20102;-32
2022/05/10 01:45:47;;;;;;;0.45;0.30;;;;;;;;;;4182345;28;20226;-32
2022/05/10 01:47:54;;;;;;;0.10;0.10;;;;;;;;;;4182389;28;20053;-33
2022/05/10 01:50:02;;;;;;;0.30;0.20;;;;;;;;;;4182218;28;20048;-33
2022/05/10 01:52:15;;;;;;;0.55;0.20;;;;;;;;;;4182249;28;20056;-32
2022/05/10 01:54:34;;;;;;;0.30;0.15;;;;;;;;;;4182107;28;20052;-32
2022/05/10 01:56:35;;;;;;;0.57;0.30;;;;;;;;;;4182079;28;20252;-33
2022/05/10 01:58:39;;;;;;;0.17;0.17;;;;;;;;;;4181333;28;20352;-32
2022/05/10 02:00:42;;;;;;;0.40;0.40;;;;;;;;;;4181946;28;20056;-33
2022/05/10 02:02:46;;;;;;;0.10;0.10;;;;;;;;;;4181933;28;20509;-32
2022/05/10 02:04:48;;;;;;;0.70;0.20;;;;;;;;;;4181759;28;20558;-33
2022/05/10 02:06:55;;;;;;;1.50;0.25;;;;;;;;;;4181877;28;20087;-33
2022/05/10 02:09:02;;;;;;;0.10;0.10;;;;;;;;;;4181790;28;20451;-32
2022/05/10 02:11:14;;;;;;;0.40;0.10;;;;;;;;;;4181783;28;20055;-33
2022/05/10 02:13:19;;;;;;;0.40;0.20;;;;;;;;;;4181785;28;20041;-33
2022/05/10 02:15:32;;;;;;;0.50;0.20;;;;;;;;;;4181303;28;20052;-32
2022/05/10 02:17:52;;;;;;;0.20;0.20;;;;;;;;;;4181485;28;20049;-32
2022/05/10 02:20:09;;;;;;;0.30;0.20;;;;;;;;;;4181358;28;20555;-32
2022/05/10 02:22:13;;;;;;;0.17;0.15;;;;;;;;;;4181635;28;20061;-33
2022/05/10 02:24:35;;;;;;;0.70;0.63;;;;;;;;;;4181123;28;20053;-32
2022/05/10 02:26:47;;;;;;;0.65;0.40;;;;;;;;;;4181855;28;20053;-32
2022/05/10 02:28:53;;;;;;;0.20;0.20;;;;;;;;;;4181136;28;20045;-32
2022/05/10 02:30:56;;;;;;;0.15;0.15;;;;;;;;;;4181286;28;20381;-33
2022/05/10 02:33:07;;;;;;;0.20;0.20;;;;;;;;;;4181635;28;20052;-32
2022/05/10 02:35:11;;;;;;;0.40;0.20;;;;;;;;;;4181319;28;20045;-33
2022/05/10 02:37:12;;;;;;;0.45;0.20;;;;;;;;;;4181387;28;20098;-33
2022/05/10 02:39:13;;;;;;;0.57;0.32;;;;;;;;;;4181169;28;20048;-32
2022/05/10 02:41:17;;;;;;;0.28;0.20;;;;;;;;;;4181293;28;20053;-33
2022/05/10 02:43:22;;;;;;;0.95;0.40;;;;;;;;;;4181117;28;20075;-32
2022/05/10 02:45:23;;;;;;;0.30;0.20;;;;;;;;;;4180744;28;20474;-33
2022/05/10 02:47:30;;;;;;;0.75;0.10;;;;;;;;;;4181476;28;20055;-32
2022/05/10 02:49:32;;;;;;;0.30;0.20;;;;;;;;;;4181242;28;20099;-32
2022/05/10 02:51:33;;;;;;;0.22;0.20;;;;;;;;;;4181351;28;20048;-38
2022/05/10 02:53:34;;;;;;;0.45;0.20;;;;;;;;;;4181255;28;20580;-41
2022/05/10 02:55:42;;;;;;;0.22;0.20;;;;;;;;;;4181199;28;20068;-39
2022/05/10 02:57:44;;;;;;;0.15;0.15;;;;;;;;;;4181183;28;20041;-39
2022/05/10 02:59:45;;;;;;;0.20;0.20;;;;;;;;;;4180495;28;20499;-41
2022/05/10 03:01:51;;;;;;;0.10;0.10;;;;;;;;;;4180837;28;20056;-41
2022/05/10 03:03:52;;;;;;;0.13;0.10;;;;;;;;;;4180888;28;20528;-40
2022/05/10 03:05:53;;;;;;;0.40;0.30;;;;;;;;;;4180905;28;20052;-40
2022/05/10 03:07:55;;;;;;;0.10;0.10;;;;;;;;;;4180832;28;20500;-41
2022/05/10 03:09:56;;;;;;;0.10;0.10;;;;;;;;;;4180770;28;20095;-41
2022/05/10 03:11:58;;;;;;;0.10;0.10;;;;;;;;;;4180867;28;20094;-40
2022/05/10 03:13:59;;;;;;;0.40;0.20;;;;;;;;;;4179038;28;20115;-41
2022/05/10 03:16:00;;;;;;;0.20;0.10;;;;;;;;;;4180893;28;20496;-40
2022/05/10 03:18:01;;;;;;;0.28;0.20;;;;;;;;;;4180638;28;20385;-41
2022/05/10 03:20:03;;;;;;;0.40;0.20;;;;;;;;;;4180524;28;20103;-38
2022/05/10 03:22:04;;;;;;;0.20;0.20;;;;;;;;;;4180741;28;20049;-40
2022/05/10 03:24:05;;;;;;;0.30;0.10;;;;;;;;;;4180525;28;20049;-39
2022/05/10 03:26:08;;;;;;;0.40;0.20;;;;;;;;;;4180686;28;20057;-41
2022/05/10 03:28:10;;;;;;;0.20;0.20;;;;;;;;;;4180627;28;20432;-39
2022/05/10 03:30:11;;;;;;;0.20;0.20;;;;;;;;;;4180169;28;20053;-38
2022/05/10 03:32:13;;;;;;;0.22;0.17;;;;;;;;;;4180509;28;20098;-40
2022/05/10 03:36:33;;;;;;;0.15;0.15;;;;;;;;;;4179642;28;20037;-40
2022/05/10 03:38:36;;;;;;;1.20;0.40;;;;;;;;;;4180204;28;20135;-40
2022/05/10 03:40:37;;;;;;;0.20;0.20;;;;;;;;;;4180350;28;20053;-38
2022/05/10 03:42:45;;;;;;;0.60;0.50;;;;;;;;;;4180362;28;20075;-39
2022/05/10 03:44:53;;;;;;;0.20;0.15;;;;;;;;;;4179927;28;20053;-41
2022/05/10 03:46:54;;;;;;;0.10;0.10;;;;;;;;;;4180236;28;20053;-39
2022/05/10 03:48:55;;;;;;;0.30;0.20;;;;;;;;;;4180145;28;20446;-37
2022/05/10 03:50:56;;;;;;;0.25;0.20;;;;;;;;;;4179996;28;20053;-40
2022/05/10 03:52:57;;;;;;;0.20;0.20;;;;;;;;;;4180110;28;20056;-37
2022/05/10 03:54:58;;;;;;;0.60;0.28;;;;;;;;;;4178875;28;20095;-41
2022/05/10 03:57:00;;;;;;;0.10;0.10;;;;;;;;;;4180156;28;20045;-39
2022/05/10 03:59:01;;;;;;;0.40;0.20;;;;;;;;;;4179779;28;20056;-40
2022/05/10 04:01:02;;;;;;;0.52;0.20;;;;;;;;;;4179862;28;20540;-40
2022/05/10 04:03:03;;;;;;;0.30;0.20;;;;;;;;;;4179896;28;20075;-39
2022/05/10 04:05:05;;;;;;;0.22;0.20;;;;;;;;;;4179796;28;20051;-40
2022/05/10 04:07:06;;;;;;;0.17;0.10;;;;;;;;;;4180096;28;20408;-38
2022/05/10 04:09:07;;;;;;;0.20;0.20;;;;;;;;;;4179829;28;20518;-38
2022/05/10 04:11:11;;;;;;;0.25;0.13;;;;;;;;;;4179858;28;20052;-39
2022/05/10 04:13:12;;;;;;;0.30;0.20;;;;;;;;;;4179922;28;20049;-40
2022/05/10 04:15:14;;;;;;;0.50;0.15;;;;;;;;;;4179421;28;20378;-41
2022/05/10 04:17:15;;;;;;;0.25;0.20;;;;;;;;;;4180157;28;20045;-39
2022/05/10 04:19:16;;;;;;;0.38;0.20;;;;;;;;;;4179993;28;20088;-39
2022/05/10 04:21:17;;;;;;;0.17;0.10;;;;;;;;;;4179967;28;20186;-39
2022/05/10 04:23:18;;;;;;;0.20;0.20;;;;;;;;;;4179735;28;20497;-40
2022/05/10 04:25:23;;;;;;;0.47;0.30;;;;;;;;;;4179589;28;20079;-38
2022/05/10 04:27:24;;;;;;;0.10;0.10;;;;;;;;;;4179691;28;20094;-40
2022/05/10 04:29:25;;;;;;;0.20;0.20;;;;;;;;;;4177850;28;20484;-38
2022/05/10 04:31:26;;;;;;;0.52;0.20;;;;;;;;;;4179681;28;20412;-41
2022/05/10 04:33:27;;;;;;;0.30;0.20;;;;;;;;;;4179837;28;20045;-40
2022/05/10 04:35:28;;;;;;;0.20;0.13;;;;;;;;;;4179649;28;20070;-40
2022/05/10 04:37:29;;;;;;;0.28;0.20;;;;;;;;;;4179361;28;20049;-39
2022/05/10 04:41:24;;;;;;;0.20;0.10;;;;;;;;;;4179390;28;20543;-41
2022/05/10 04:41:53;;;;;;;0.40;0.28;;;;;;;;;;4178554;28;20142;-37
2022/05/10 04:43:55;;;;;;;0.30;0.20;;;;;;;;;;4178912;28;20053;-41
2022/05/10 04:45:57;;;;;;;0.17;0.13;;;;;;;;;;4179467;28;20052;-40
2022/05/10 04:47:58;;;;;;;0.32;0.20;;;;;;;;;;4177927;28;20053;-40
2022/05/10 04:49:59;;;;;;;0.32;0.20;;;;;;;;;;4179363;28;20102;-41
2022/05/10 04:52:00;;;;;;;0.40;0.20;;;;;;;;;;4179398;28;20049;-40
2022/05/10 04:54:01;;;;;;;0.10;0.10;;;;;;;;;;4179183;28;20091;-38
2022/05/10 04:56:03;;;;;;;0.40;0.20;;;;;;;;;;4179354;28;20077;-40
2022/05/10 04:58:04;;;;;;;0.38;0.20;;;;;;;;;;4179564;28;20095;-40
2022/05/10 05:00:09;;;;;;;0.43;0.15;;;;;;;;;;4178053;28;20098;-40
2022/05/10 05:02:10;;;;;;;0.10;0.10;;;;;;;;;;4161302;28;20053;-40
2022/05/10 05:04:11;;;;;;;0.73;0.30;;;;;;;;;;4160820;28;20559;-40
2022/05/10 05:06:13;;;;;;;0.20;0.10;;;;;;;;;;4160821;28;20136;-41
2022/05/10 05:08:15;;;;;;;1.25;0.20;;;;;;;;;;4160585;28;20050;-41
2022/05/10 05:10:17;;;;;;;0.43;0.30;;;;;;;;;;4192413;28;20056;-39
2022/05/10 05:12:18;;;;;;;0.13;0.10;;;;;;;;;;4160520;28;20088;-40
2022/05/10 05:14:19;;;;;;;0.47;0.30;;;;;;;;;;4160245;28;20406;-39
2022/05/10 05:16:20;;;;;;;0.63;0.40;;;;;;;;;;4160617;28;20045;-40
2022/05/10 05:18:21;;;;;;;0.47;0.28;;;;;;;;;;4160724;28;20068;-38
2022/05/10 05:20:23;;;;;;;0.30;0.20;;;;;;;;;;4175849;28;20049;-40
2022/05/10 05:22:28;;;;;;;0.20;0.20;;;;;;;;;;4160858;28;20053;-39
2022/05/10 05:24:29;;;;;;;0.38;0.20;;;;;;;;;;4160373;28;20115;-40
2022/05/10 05:26:30;;;;;;;0.32;0.20;;;;;;;;;;4160766;28;20456;-40
2022/05/10 05:28:31;;;;;;;0.75;0.47;;;;;;;;;;4160435;28;20136;-41
2022/05/10 05:30:33;;;;;;;0.20;0.20;;;;;;;;;;4160737;28;20049;-41
2022/05/10 05:32:34;;;;;;;0.20;0.20;;;;;;;;;;4163976;28;20052;-39
2022/05/10 05:34:35;;;;;;;0.22;0.17;;;;;;;;;;4176892;28;20075;-39
2022/05/10 05:36:36;;;;;;;0.50;0.28;;;;;;;;;;4176669;28;20103;-39
2022/05/10 05:38:37;;;;;;;0.82;0.25;;;;;;;;;;4176803;28;20579;-39
2022/05/10 05:40:38;;;;;;;0.73;0.40;;;;;;;;;;4176766;28;20095;-39
2022/05/10 05:42:41;;;;;;;0.90;0.30;;;;;;;;;;4177073;28;20081;-40
2022/05/10 05:44:42;;;;;;;0.63;0.20;;;;;;;;;;4174738;28;20940;-41
2022/05/10 05:46:43;;;;;;;0.20;0.20;;;;;;;;;;4176993;28;20080;-41
2022/05/10 05:48:44;;;;;;;0.40;0.30;;;;;;;;;;4176588;28;20061;-39
2022/05/10 05:50:45;;;;;;;0.40;0.22;;;;;;;;;;4176852;28;20055;-39
2022/05/10 05:52:47;;;;;;;0.70;0.22;;;;;;;;;;4176557;28;20049;-41
2022/05/10 05:54:49;;;;;;;0.22;0.20;;;;;;;;;;4176415;28;20440;-40
2022/05/10 05:56:50;;;;;;;0.30;0.20;;;;;;;;;;4178655;28;20045;-39
2022/05/10 05:58:51;;;;;;;0.38;0.22;;;;;;;;;;4179229;28;20056;-37
2022/05/10 06:00:52;;;;;;;0.43;0.20;;;;;;;;;;4182573;28;20166;-39
2022/05/10 06:02:53;;;;;;;0.30;0.20;;;;;;;;;;4179896;28;20161;-40
2022/05/10 06:04:54;;;;;;;0.85;0.20;;;;;;;;;;4172883;28;20437;-41
2022/05/10 06:06:55;;;;;;;0.40;0.20;;;;;;;;;;4175735;28;20061;-41
2022/05/10 06:08:56;;;;;;;1.00;0.50;;;;;;;;;;4185403;28;20060;-40
2022/05/10 06:10:57;;;;;;;1.60;0.40;;;;;;;;;;4188004;28;20550;-40
2022/05/10 06:13:01;;;;;;;0.43;0.30;;;;;;;;;;4188775;28;20298;-40
2022/05/10 06:15:08;;;;;;;0.40;0.30;;;;;;;;;;4169104;28;20049;-40
2022/05/10 06:17:10;;;;;;;1.20;0.50;;;;;;;;;;4185636;28;20045;-41
2022/05/10 06:19:12;;;;;;;1.65;0.30;;;;;;;;;;4186167;28;20045;-39
2022/05/10 06:21:13;;;;;;;0.40;0.22;;;;;;;;;;4184427;28;20455;-39
2022/05/10 06:23:15;;;;;;;0.52;0.30;;;;;;;;;;4182277;28;20062;-41
2022/05/10 06:25:18;;;;;;;1.05;0.38;;;;;;;;;;4181333;28;20049;-40
2022/05/10 06:27:19;;;;;;;1.15;0.30;;;;;;;;;;4184766;28;20052;-41
2022/05/10 06:29:20;;;;;;;0.73;0.40;;;;;;;;;;4186339;28;20388;-40
2022/05/10 06:31:21;;;;;;;0.98;0.30;;;;;;;;;;4186134;28;20118;-41
2022/05/10 06:33:22;;;;;;;0.70;0.40;;;;;;;;;;4187568;28;20048;-41
2022/05/10 06:35:23;;;;;;;1.48;0.65;;;;;;;;;;4182083;28;20155;-40
2022/05/10 06:39:44;;;;;;;0.57;0.22;;;;;;;;;;4174167;28;20376;-40
2022/05/10 06:41:44;;;;;;;0.75;0.40;;;;;;;;;;4200890;28;20140;-39
2022/05/10 06:43:46;;;;;;;0.95;0.30;;;;;;;;;;4171396;28;20434;-41
2022/05/10 06:45:57;;;;;;;0.40;0.30;;;;;;;;;;4177190;28;20496;-40
2022/05/10 06:47:58;;;;;;;0.95;0.30;;;;;;;;;;4172563;28;20053;-41
2022/05/10 06:49:59;;;;;;;0.43;0.32;;;;;;;;;;4174193;28;20071;-42
2022/05/10 06:52:01;;;;;;;0.50;0.40;;;;;;;;;;4180337;28;20509;-41
2022/05/10 06:54:02;;;;;;;0.73;0.40;;;;;;;;;;4184159;28;20500;-41
2022/05/10 06:56:03;;;;;;;0.57;0.40;;;;;;;;;;4182370;28;20136;-41
2022/05/10 06:58:05;;;;;;;1.20;0.45;;;;;;;;;;4173694;28;20045;-41
2022/05/10 07:00:07;;;;;;;2.17;0.30;;;;;;;;;;4166997;28;20048;-42
2022/05/10 07:02:08;;;;;;;1.08;0.50;;;;;;;;;;4172338;28;20142;-42
2022/05/10 07:04:09;;;;;;;2.28;0.30;;;;;;;;;;4176502;28;20517;-42
2022/05/10 07:06:11;;;;;;;1.30;0.55;;;;;;;;;;4175139;28;20150;-42
2022/05/10 07:08:13;;;;;;;0.98;0.30;;;;;;;;;;4176195;28;20138;-43
2022/05/10 07:10:15;;;;;;;0.43;0.32;;;;;;;;;;4178769;28;20052;-42
2022/05/10 07:12:16;;;;;;;0.77;0.30;;;;;;;;;;4182400;28;20544;-43
2022/05/10 07:14:17;;;;;;;1.15;0.38;;;;;;;;;;4178688;28;20060;-41
2022/05/10 07:16:18;;;;;;;1.10;0.55;;;;;;;;;;4182658;28;20131;-42
2022/05/10 07:18:19;;;;;;;0.80;0.30;;;;;;;;;;4179988;28;20072;-42
2022/05/10 07:20:20;;;;;;;1.90;0.45;;;;;;;;;;4183190;28;20048;-42
2022/05/10 07:22:21;;;;;;;0.80;0.30;;;;;;;;;;4181755;28;20052;-43
2022/05/10 07:24:22;;;;;;;1.90;0.30;;;;;;;;;;4182833;28;20052;-42
2022/05/10 07:26:23;;;;;;;3.00;0.40;;;;;;;;;;4178685;28;20144;-42
2022/05/10 07:28:25;;;;;;;0.65;0.35;;;;;;;;;;4181719;28;20076;-41
2022/05/10 07:30:27;;;;;;;2.90;0.50;;;;;;;;;;4183273;28;20052;-42
2022/05/10 07:32:29;;;;;;;0.65;0.30;;;;;;;;;;4182142;28;20090;-42
2022/05/10 07:34:30;;;;;;;1.50;0.47;;;;;;;;;;4181561;28;20044;-42
2022/05/10 07:36:33;;;;;;;0.70;0.30;;;;;;;;;;4179759;28;20136;-42
2022/05/10 07:38:34;;;;;;;2.92;0.43;;;;;;;;;;4174176;28;20872;-42
2022/05/10 07:40:36;;;;;;;1.40;0.25;;;;;;;;;;4177022;28;20147;-42
2022/05/10 07:42:38;;;;;;;1.58;0.40;;;;;;;;;;4174109;28;20461;-42
2022/05/10 07:44:39;;;;;;;1.45;0.50;;;;;;;;;;4177527;28;20048;-42
2022/05/10 07:46:40;;;;;;;0.73;0.30;;;;;;;;;;4181248;28;20048;-42
2022/05/10 07:48:41;;;;;;;0.82;0.50;;;;;;;;;;4178809;28;20188;-43
2022/05/10 07:50:42;;;;;;;0.98;0.40;;;;;;;;;;4180300;28;20098;-43
2022/05/10 07:52:44;;;;;;;0.45;0.40;;;;;;;;;;4177285;28;20044;-43
2022/05/10 07:54:45;;;;;;;1.20;0.40;;;;;;;;;;4172864;28;20052;-41
2022/05/10 07:56:46;;;;;;;1.98;0.70;;;;;;;;;;4175429;28;20115;-41
2022/05/10 07:58:48;;;;;;;0.75;0.40;;;;;;;;;;4175215;28;20040;-41
2022/05/10 08:00:48;;;;;;;0.40;0.40;;;;;;;;;;4175528;28;20083;-42
2022/05/10 08:02:49;;;;;;;0.22;0.20;;;;;;;;;;4174212;28;20056;-42
2022/05/10 08:04:50;;;;;;;1.00;0.50;;;;;;;;;;4180102;28;20049;-41
2022/05/10 08:06:52;;;;;;;2.22;0.47;;;;;;;;;;4173456;28;20464;-42
2022/05/10 08:08:55;;;;;;;2.60;0.50;;;;;;;;;;4174695;28;20472;-42
2022/05/10 08:10:57;;;;;;;1.45;0.50;;;;;;;;;;4178056;28;20053;-42
2022/05/10 08:12:58;;;;;;;2.17;0.43;;;;;;;;;;4177631;28;20508;-42
2022/05/10 08:14:59;;;;;;;1.55;0.50;;;;;;;;;;4177229;28;20109;-41
2022/05/10 08:17:00;;;;;;;0.50;0.40;;;;;;;;;;4177918;28;20136;-42
2022/05/10 08:19:01;;;;;;;2.00;0.60;;;;;;;;;;4176419;28;20137;-42
2022/05/10 08:21:03;;;;;;;0.38;0.30;;;;;;;;;;4184120;28;20110;-40
2022/05/10 08:23:06;;;;;;;0.90;0.40;;;;;;;;;;4174428;28;20052;-42
2022/05/10 08:25:10;;;;;;;2.33;0.40;;;;;;;;;;4173368;28;20460;-41
2022/05/10 08:27:11;;;;;;;2.33;0.40;;;;;;;;;;4169924;28;20963;-42
2022/05/10 08:29:16;;;;;;;1.77;0.50;;;;;;;;;;4181156;28;20091;-42
2022/05/10 08:31:17;;;;;;;0.93;0.38;;;;;;;;;;4174199;28;20346;-41
2022/05/10 08:33:23;;;;;;;0.63;0.32;;;;;;;;;;4177611;28;20095;-41
2022/05/10 08:35:25;;;;;;;2.10;0.50;;;;;;;;;;4179082;28;20049;-42
2022/05/10 08:37:26;;;;;;;2.65;0.45;;;;;;;;;;4174323;28;20400;-41
2022/05/10 08:39:27;;;;;;;0.57;0.40;;;;;;;;;;4177039;28;20083;-41
2022/05/10 08:41:34;;;;;;;0.90;0.45;;;;;;;;;;4174452;28;20078;-42
2022/05/10 08:43:35;;;;;;;1.30;0.50;;;;;;;;;;4176432;28;20126;-42
2022/05/10 08:45:40;;;;;;;2.78;0.30;;;;;;;;;;4175711;28;20041;-41
2022/05/10 08:47:42;;;;;;;0.85;0.50;;;;;;;;;;4176681;28;20049;-42
2022/05/10 08:49:46;;;;;;;1.17;0.40;;;;;;;;;;4171426;28;20496;-41
2022/05/10 08:51:47;;;;;;;1.02;0.50;;;;;;;;;;4189990;28;20085;-42
2022/05/10 08:53:49;;;;;;;0.88;0.60;;;;;;;;;;4178932;28;21238;-42
2022/05/10 08:56:00;;;;;;;1.20;0.40;;;;;;;;;;4182514;28;20044;-42
2022/05/10 08:58:09;;;;;;;1.20;0.30;;;;;;;;;;4180362;28;20044;-41
2022/05/10 09:00:12;;;;;;;0.95;0.30;;;;;;;;;;4178251;28;20045;-42
2022/05/10 09:02:15;;;;;;;1.50;0.50;;;;;;;;;;4185193;28;20049;-41
2022/05/10 09:04:33;;;;;;;1.38;0.60;;;;;;;;;;4182465;28;20071;-42
2022/05/10 09:06:51;;;;;;;2.97;0.40;;;;;;;;;;4193710;28;20045;-42
2022/05/10 09:09:05;;;;;;;1.55;0.80;;;;;;;;;;4182783;28;20049;-42
2022/05/10 09:11:10;;;;;;;0.82;0.45;;;;;;;;;;4177805;28;20049;-42
2022/05/10 09:13:14;;;;;;;0.70;0.40;;;;;;;;;;4179946;28;20511;-41
2022/05/10 09:15:17;;;;;;;0.28;0.20;;;;;;;;;;4174350;28;20080;-42
2022/05/10 09:17:18;;;;;;;0.57;0.40;;;;;;;;;;4175704;28;20037;-42
2022/05/10 09:19:24;;;;;;;1.02;0.50;;;;;;;;;;4174469;28;20052;-42
2022/05/10 09:21:37;;;;;;;0.73;0.40;;;;;;;;;;4177704;28;20170;-42
2022/05/10 09:23:58;;;;;;;0.77;0.60;;;;;;;;;;4181701;28;20048;-43
2022/05/10 09:26:00;;;;;;;0.45;0.40;;;;;;;;;;4181470;28;20052;-41
2022/05/10 09:28:24;;;;;;;1.90;0.40;;;;;;;;;;4181990;28;20105;-43
2022/05/10 09:30:27;;;;;;;2.60;0.50;;;;;;;;;;4177176;28;20052;-42
2022/05/10 09:35:09;;;;;;;0.30;0.30;;;;;;;;;;4175418;28;20053;-42
2022/05/10 09:37:13;;;;;;;0.52;0.40;;;;;;;;;;4185315;28;20121;-43
2022/05/10 09:39:19;;;;;;;1.85;0.63;;;;;;;;;;4185619;28;20041;-42
2022/05/10 09:41:43;;;;;;;0.80;0.40;;;;;;;;;;4187653;28;20484;-42
2022/05/10 09:43:44;;;;;;;0.85;0.40;;;;;;;;;;4184276;28;20048;-44
2022/05/10 09:46:02;;;;;;;3.80;0.30;;;;;;;;;;4185384;28;20041;-32
2022/05/10 09:48:09;;;;;;;0.50;0.30;;;;;;;;;;4184221;28;20502;-33
2022/05/10 09:50:20;;;;;;;0.57;0.40;;;;;;;;;;4185261;28;20443;-32
2022/05/10 09:52:22;;;;;;;0.85;0.38;;;;;;;;;;4185485;28;20057;-33
2022/05/10 09:54:30;;;;;;;3.03;0.50;;;;;;;;;;4178333;28;20429;-33
2022/05/10 09:56:36;;;;;;;0.73;0.40;;;;;;;;;;4178824;28;20537;-33
2022/05/10 09:58:41;;;;;;;0.85;0.40;;;;;;;;;;4178626;28;20052;-33
2022/05/10 10:00:44;;;;;;;1.10;0.57;;;;;;;;;;4179105;28;20049;-33
2022/05/10 10:02:55;;;;;;;0.80;0.50;;;;;;;;;;4178341;28;20401;-34
2022/05/10 10:04:56;;;;;;;0.80;0.30;;;;;;;;;;4179520;28;20056;-33
2022/05/10 10:07:15;;;;;;;0.65;0.40;;;;;;;;;;4178946;28;20447;-38
2022/05/10 10:09:32;;;;;;;0.40;0.30;;;;;;;;;;4212413;28;20048;-34
2022/05/10 10:11:34;;;;;;;0.93;0.50;;;;;;;;;;4181556;28;20049;-35
2022/05/10 10:13:38;;;;;;;0.45;0.40;;;;;;;;;;4180494;28;20044;-34
2022/05/10 10:15:43;;;;;;;0.52;0.43;;;;;;;;;;4176715;28;20421;-35
2022/05/10 10:17:49;;;;;;;1.20;0.50;;;;;;;;;;4176803;28;20063;-33
2022/05/10 10:19:57;;;;;;;0.80;0.50;;;;;;;;;;4175825;28;20060;-33
2022/05/10 10:22:10;;;;;;;0.90;0.30;;;;;;;;;;4174604;28;20092;-32
2022/05/10 10:24:18;;;;;;;1.55;0.50;;;;;;;;;;4175490;28;20055;-32
2022/05/10 10:26:19;;;;;;;0.80;0.50;;;;;;;;;;4180014;28;20938;-32
2022/05/10 10:28:29;;;;;;;0.68;0.32;;;;;;;;;;4177393;28;20053;-33
2022/05/10 10:30:32;;;;;;;1.02;0.47;;;;;;;;;;4175923;28;20079;-33
2022/05/10 10:32:45;;;;;;;1.98;0.47;;;;;;;;;;4176456;28;20091;-32
2022/05/10 10:34:52;;;;;;;0.80;0.28;;;;;;;;;;4180045;28;20080;-33
2022/05/10 10:36:59;;;;;;;1.33;0.43;;;;;;;;;;4177336;28;20041;-33
2022/05/10 10:39:06;;;;;;;0.50;0.50;;;;;;;;;;4180472;28;20107;-33
2022/05/10 10:41:12;;;;;;;0.80;0.35;;;;;;;;;;4179859;28;20052;-33
2022/05/10 10:43:36;;;;;;;2.40;0.55;;;;;;;;;;4179839;28;20407;-33
2022/05/10 10:45:40;;;;;;;0.90;0.50;;;;;;;;;;4180201;28;20049;-33
2022/05/10 10:47:50;;;;;;;0.35;0.32;;;;;;;;;;4175464;28;20049;-33
2022/05/10 10:50:09;;;;;;;0.60;0.45;;;;;;;;;;4175893;28;20048;-33
2022/05/10 10:52:12;;;;;;;3.58;0.70;;;;;;;;;;4178290;28;20063;-33
2022/05/10 10:54:17;;;;;;;3.00;0.40;;;;;;;;;;4177060;28;20155;-33
2022/05/10 10:56:27;;;;;;;3.00;0.57;;;;;;;;;;4183604;28;20143;-32
2022/05/10 10:58:43;;;;;;;0.50;0.50;;;;;;;;;;4179925;28;20052;-33
2022/05/10 11:00:48;;;;;;;1.00;0.57;;;;;;;;;;4181171;28;20068;-33
2022/05/10 11:03:11;;;;;;;0.73;0.50;;;;;;;;;;4181447;28;20052;-32
2022/05/10 11:05:31;;;;;;;1.10;0.60;;;;;;;;;;4181127;28;20057;-32
2022/05/10 11:07:51;;;;;;;1.35;0.60;;;;;;;;;;4173504;28;20059;-32
2022/05/10 11:09:52;;;;;;;;;;;;;;;;;;4171785;28;20884;-33
2022/05/10 11:11:53;;;;;;;1.70;0.40;;;;;;;;;;4179483;28;20505;-33
2022/05/10 11:14:06;;;;;;;1.10;0.40;;;;;;;;;;4177849;28;20052;-32
2022/05/10 11:16:28;;;;;;;1.08;0.50;;;;;;;;;;4176240;28;20198;-33
2022/05/10 11:18:31;;;;;;;1.70;0.77;;;;;;;;;;4177938;28;20547;-33
2022/05/10 11:20:41;;;;;;;0.88;0.55;;;;;;;;;;4210763;28;20472;-33
2022/05/10 11:22:42;;;;;;;;;;;;;;;;;;4176466;28;20056;-33
2022/05/10 11:24:43;;;;;;;0.90;0.50;;;;;;;;;;4189616;28;19928;-33
2022/05/10 11:27:02;;;;;;;0.47;0.40;;;;;;;;;;4181470;28;20098;-32
2022/05/10 11:29:22;;;;;;;1.50;0.70;;;;;;;;;;4176689;28;20057;-32
2022/05/10 11:31:35;;;;;;;1.20;0.60;;;;;;;;;;4185088;28;20049;-33
2022/05/10 11:33:55;;;;;;;0.50;0.43;;;;;;;;;;4183371;28;20106;-33
2022/05/10 11:36:01;;;;;;;2.47;0.60;;;;;;;;;;4179026;28;20443;-33
2022/05/10 11:38:20;;;;;;;1.63;0.57;;;;;;;;;;4182495;28;20052;-32
2022/05/10 11:40:22;;;;;;;0.80;0.40;;;;;;;;;;4179163;28;20044;-33
2022/05/10 11:42:25;;;;;;;2.03;0.80;;;;;;;;;;4180088;28;20455;-33
2022/05/10 11:44:58;;;;;;;1.48;0.70;;;;;;;;;;4175515;28;20059;-33
2022/05/10 11:47:05;;;;;;;3.00;0.77;;;;;;;;;;4162537;28;20513;-33
2022/05/10 11:49:26;;;;;;;2.28;0.80;;;;;;;;;;4178091;28;20052;-33
2022/05/10 11:51:39;;;;;;;1.23;0.85;;;;;;;;;;4180896;28;20041;-33
2022/05/10 11:53:50;;;;;;;1.27;0.77;;;;;;;;;;4175024;28;20056;-33
2022/05/10 11:55:56;;;;;;;1.55;0.50;;;;;;;;;;4179083;28;20100;-33
2022/05/10 11:57:59;;;;;;;1.30;0.57;;;;;;;;;;4173424;28;20041;-33
2022/05/10 12:00:18;;;;;;;1.33;0.50;;;;;;;;;;4169925;28;20065;-33
2022/05/10 12:02:28;;;;;;;0.90;0.50;;;;;;;;;;4177903;28;20075;-33
2022/05/10 12:04:32;;;;;;;2.10;0.90;;;;;;;;;;4182842;28;21636;-34
2022/05/10 12:06:34;;;;;;;1.98;0.70;;;;;;;;;;4174933;28;20346;-33
2022/05/10 12:08:35;;;;;;;2.75;0.70;;;;;;;;;;4180826;28;20106;-33
2022/05/10 12:10:40;;;;;;;2.88;0.70;;;;;;;;;;4174561;28;20517;-33
2022/05/10 12:12:47;;;;;;;1.10;0.88;;;;;;;;;;4172145;28;20056;-32
2022/05/10 12:22:01;;;;;;;2.05;0.63;;;;;;;;;;4176687;28;20053;-32
2022/05/10 12:24:07;;;;;;;1.58;0.65;;;;;;;;;;4180340;28;20060;-32
2022/05/10 12:26:09;;;;;;;1.02;0.77;;;;;;;;;;4190087;28;20052;-33
2022/05/10 12:28:30;;;;;;;1.85;0.75;;;;;;;;;;4179335;28;20055;-33
2022/05/10 12:30:32;;;;;;;2.25;0.60;;;;;;;;;;4179803;28;20301;-33
2022/05/10 12:32:34;;;;;;;1.42;0.90;;;;;;;;;;4179772;28;20535;-33
2022/05/10 12:34:38;;;;;;;1.02;0.52;;;;;;;;;;4206930;28;20126;-33
2022/05/10 12:36:41;;;;;;;0.80;0.60;;;;;;;;;;4176482;28;20491;-33
2022/05/10 12:38:49;;;;;;;1.27;0.60;;;;;;;;;;4176114;28;21260;-33
2022/05/10 12:40:57;;;;;;;0.98;0.68;;;;;;;;;;4180636;28;20064;-33
2022/05/10 12:42:58;;;;;;;1.73;0.60;;;;;;;;;;4181873;28;20059;-33
2022/05/10 12:45:17;;;;;;;2.28;0.88;;;;;;;;;;4176321;28;20053;-33